Manyberries, Canada
Current Conditions -  °F | °C
As of 12:00 PM on Monday 22 Dec 2014 (Local Time) from CYXH Reporting Station
Scattered Clouds Scattered Clouds  
Wind Chill: 25°   Ceiling: Unl
Heat Index: 34°   Visibility: 30mi
Dew Point: 28°   Wind: 13mph
Humidity: 81%   Direction: 280°W
Pressure: 29.87"   Gusts: NA
Location:  49.4°N, 110.7°W
Report Text: CYXH 221900Z 28011KT 30SM FEW120 SCT270 01/M02 A2987 RMK AC2CI2 SLP139
Loading
Personal Weather Stations






























Interactive Weather Map New forecast layout! Learn more

10-Day Weather Forecast

Advertisements
Track Severe Weather on mobile